Tuesday, November 25, 2014, 10:46 PM EST

KPTW, Pottstown Limerick Airport

Location: Royersford, PA, United States Lat: 40.233
Local Time: 10:46 PM EST ( 3:46 GMT) Lon: -75.55
Time Zone: US/Eastern Elev: 291 ft

Show me the last for .
Show Decoded

2014-11-25 21:54 METAR KPTW 260254Z AUTO 00000KT 10SM CLR 04/M01 A3015 RMK AO2 SLP210 T00391006
                 51017 =
2014-11-25 20:54 METAR KPTW 260154Z AUTO 00000KT 10SM CLR 03/M02 A3013 RMK AO2 SLP203 T00331017 =
2014-11-25 19:54 METAR KPTW 260054Z AUTO 00000KT 10SM CLR 03/M02 A3013 RMK AO2 SLP200 T00331017 =
2014-11-25 18:54 METAR KPTW 252354Z AUTO 00000KT 10SM CLR 04/M01 A3010 RMK AO2 SLP193 T00441011
                 10117 20039 53021 =
2014-11-25 17:54 METAR KPTW 252254Z AUTO 00000KT 10SM CLR 06/M02 A3008 RMK AO2 SLP182 T00561017 =
2014-11-25 16:54 METAR KPTW 252154Z AUTO 20003KT 10SM CLR 10/M02 A3005 RMK AO2 SLP175 T01001022 =
2014-11-25 15:54 METAR KPTW 252054Z AUTO 28003KT 10SM CLR 11/M02 A3004 RMK AO2 SLP170 T01061017
                 53000 =
2014-11-25 14:54 METAR KPTW 251954Z AUTO 30008KT 10SM CLR 12/M02 A3003 RMK AO2 SLP164 T01171017 =
2014-11-25 13:54 METAR KPTW 251854Z AUTO 27008G15KT 10SM CLR 11/M02 A3002 RMK AO2 SLP163
                 T01111022 =
2014-11-25 12:54 METAR KPTW 251754Z AUTO 25008KT 10SM CLR 11/M01 A3004 RMK AO2 SLP169 T01111011
                 10111 20100 58001 =
2014-11-25 11:54 METAR KPTW 251654Z AUTO 29009G14KT 10SM CLR 11/M01 A3004 RMK AO2 SLP170
                 T01061011 =
2014-11-25 10:54 METAR KPTW 251554Z AUTO 27007KT 10SM CLR 11/M01 A3006 RMK AO2 SLP175 T01061011 =
2014-11-25 09:54 METAR KPTW 251454Z AUTO 30009G16KT 10SM CLR 10/M01 A3004 RMK AO2 SLP170
                 T01001011 51025 =
2014-11-25 07:54 METAR KPTW 251254Z AUTO 30008KT 10SM CLR 10/01 A3000 RMK AO2 SLP155 T01000006 =
2014-11-25 06:54 METAR KPTW 251154Z AUTO VRB04KT 10SM CLR 11/02 A2997 RMK AO2 SLP145 T01110017
                 10172 20111 53035 =
2014-11-25 05:54 METAR KPTW 251054Z AUTO 29007KT 10SM FEW070 12/02 A2993 RMK AO2 SLP133 T01220017
                 =
2014-11-25 04:54 METAR KPTW 250954Z AUTO 27005KT 10SM CLR 14/02 A2990 RMK AO2 SLP122 T01390017 =
2014-11-25 03:54 METAR KPTW 250854Z AUTO 29005KT 10SM CLR 14/06 A2987 RMK AO2 SLP109 T01440056
                 53031 =
2014-11-25 02:54 METAR KPTW 250754Z AUTO 30007G16KT 10SM FEW065 16/10 A2980 RMK AO2 SLP087
                 T01560100 =
2014-11-25 01:54 METAR KPTW 250654Z AUTO 29005KT 10SM CLR 16/12 A2980 RMK AO2 SLP088 T01560122 =
2014-11-25 00:54 METAR KPTW 250554Z AUTO 24009KT 10SM CLR 17/13 A2977 RMK AO2 SLP078 T01720133
                 10183 20172 50017 =
2014-11-24 23:54 METAR KPTW 250454Z AUTO 22010G15KT 10SM CLR 18/14 A2978 RMK AO2 SLP080 T01780139
                 402060094 =
2014-11-24 22:54 METAR KPTW 250354Z AUTO 21008KT 10SM CLR 17/13 A2976 RMK AO2 SLP073 T01720133 =

Support USWX by starting your Amazon purchase here.